createdAt,value
2019-05-02T00:02:06.080Z,101029.44
2019-05-02T00:04:51.054Z,101025.16
2019-05-02T00:07:36.450Z,101030.53
2019-05-02T00:10:24.849Z,101037.80
2019-05-02T00:13:07.492Z,101028.87
2019-05-02T00:15:53.680Z,101024.98
2019-05-02T00:18:39.012Z,101046.53
2019-05-02T00:21:23.243Z,101018.44
2019-05-02T00:24:09.571Z,101023.87
2019-05-02T00:27:00.851Z,101029.54
2019-05-02T00:29:42.051Z,101013.17
2019-05-02T00:32:26.843Z,101013.77
2019-05-02T00:35:11.808Z,101015.83
2019-05-02T00:38:03.832Z,101017.92
2019-05-02T00:41:06.538Z,101030.47
2019-05-02T00:43:51.137Z,101000.03
2019-05-02T00:46:36.211Z,101025.61
2019-05-02T00:49:20.415Z,101022.25
2019-05-02T00:52:04.030Z,100998.92
2019-05-02T00:54:48.509Z,100993.69
2019-05-02T00:57:32.986Z,101010.84
2019-05-02T01:00:18.377Z,101005.76
2019-05-02T01:03:04.212Z,100969.92
2019-05-02T01:05:49.012Z,100975.53
2019-05-02T01:08:35.602Z,100972.20
2019-05-02T01:11:20.311Z,100972.69
2019-05-02T01:14:05.119Z,100986.62
2019-05-02T01:16:54.288Z,100975.38
2019-05-02T01:19:35.787Z,100958.94
2019-05-02T01:22:20.320Z,100957.62
2019-05-02T01:25:04.596Z,100965.41
2019-05-02T01:28:12.743Z,100947.80
2019-05-02T01:31:18.301Z,100938.82
2019-05-02T01:37:26.599Z,100950.56
2019-05-02T01:40:12.987Z,100924.98
2019-05-02T01:42:56.512Z,100923.38
2019-05-02T01:45:46.632Z,100917.36
2019-05-02T01:48:45.602Z,100916.43
2019-05-02T01:51:28.368Z,100915.97
2019-05-02T01:54:12.090Z,100910.00
2019-05-02T01:56:56.501Z,100933.67
2019-05-02T01:59:40.875Z,100905.81
2019-05-02T02:02:28.036Z,100900.34
2019-05-02T02:05:11.524Z,100906.25
2019-05-02T02:07:57.210Z,100918.44
2019-05-02T02:10:43.808Z,100887.66
2019-05-02T02:13:31.185Z,100907.97
2019-05-02T02:16:17.200Z,100887.85
2019-05-02T02:19:24.636Z,100887.21
2019-05-02T02:25:38.178Z,100898.81
2019-05-02T02:28:22.526Z,100870.80
2019-05-02T02:31:07.876Z,100861.20
2019-05-02T02:33:52.850Z,100884.59
2019-05-02T02:36:36.991Z,100864.31
2019-05-02T02:39:21.652Z,100860.17
2019-05-02T02:42:06.125Z,100860.81
2019-05-02T02:47:53.043Z,100852.09
2019-05-02T02:50:43.066Z,100871.78
2019-05-02T02:53:36.135Z,100848.37
2019-05-02T02:56:19.568Z,100867.03
2019-05-02T02:59:04.521Z,100839.97
2019-05-02T03:01:48.914Z,100839.34
2019-05-02T03:04:34.054Z,100838.76
2019-05-02T03:07:25.377Z,100850.39
2019-05-02T03:10:08.732Z,100855.82
2019-05-02T03:13:25.815Z,100852.34
2019-05-02T03:16:13.821Z,100850.06
2019-05-02T03:18:57.409Z,100848.91
2019-05-02T03:21:54.331Z,100817.01
2019-05-02T03:24:51.673Z,100843.61
2019-05-02T03:27:37.382Z,100820.78
2019-05-02T03:30:32.486Z,100829.59
2019-05-02T03:33:11.479Z,100834.00
2019-05-02T03:35:53.380Z,100826.81
2019-05-02T03:38:37.131Z,100803.84
2019-05-02T03:41:23.660Z,100832.25
2019-05-02T03:44:12.418Z,100802.00
2019-05-02T03:47:01.797Z,100822.75
2019-05-02T03:49:48.720Z,100801.42
2019-05-02T03:52:27.452Z,100797.34
2019-05-02T03:55:11.536Z,100795.88
2019-05-02T03:57:55.690Z,100796.64
2019-05-02T04:00:39.675Z,100816.13
2019-05-02T04:03:24.145Z,100790.63
2019-05-02T04:06:13.974Z,100787.97
2019-05-02T04:09:00.117Z,100784.11
2019-05-02T04:11:42.285Z,100810.05
2019-05-02T04:14:37.667Z,100782.10
2019-05-02T04:17:35.848Z,100809.55
2019-05-02T04:20:19.863Z,100802.24
2019-05-02T04:23:04.441Z,100804.49
2019-05-02T04:25:48.593Z,100789.05
2019-05-02T04:28:32.542Z,100783.86
2019-05-02T04:31:17.027Z,100784.26
2019-05-02T04:34:00.578Z,100809.55
2019-05-02T04:36:59.816Z,100788.33
2019-05-02T04:39:53.606Z,100783.81
2019-05-02T04:42:35.115Z,100781.50
2019-05-02T04:45:29.103Z,100806.87
2019-05-02T04:48:08.414Z,100807.03
2019-05-02T04:51:02.037Z,100803.17
2019-05-02T04:53:45.075Z,100801.14
2019-05-02T04:56:28.226Z,100804.43
2019-05-02T04:59:17.884Z,100797.36
2019-05-02T05:02:01.396Z,100804.95
2019-05-02T05:04:46.962Z,100773.02
2019-05-02T05:07:31.146Z,100779.13
2019-05-02T05:10:15.620Z,100774.58
2019-05-02T05:12:59.677Z,100793.48
2019-05-02T05:15:48.731Z,100773.24
2019-05-02T05:18:28.912Z,100796.03
2019-05-02T05:21:13.018Z,100799.63
2019-05-02T05:24:18.122Z,100776.13
2019-05-02T05:27:21.217Z,100798.39
2019-05-02T05:30:09.172Z,100773.95
2019-05-02T05:32:47.855Z,100775.61
2019-05-02T05:35:31.740Z,100775.50
2019-05-02T05:38:18.184Z,100775.67
2019-05-02T05:41:02.963Z,100798.64
2019-05-02T05:43:53.434Z,100778.97
2019-05-02T05:46:38.698Z,100791.03
2019-05-02T05:49:21.845Z,100767.14
2019-05-02T05:52:08.160Z,100795.92
2019-05-02T05:54:52.892Z,100772.34
2019-05-02T05:57:38.459Z,100769.60
2019-05-02T06:00:24.274Z,100761.25
2019-05-02T06:03:13.955Z,100785.88
2019-05-02T06:05:58.046Z,100785.59
2019-05-02T06:08:54.147Z,100762.61
2019-05-02T06:11:50.748Z,100763.68
2019-05-02T06:14:46.196Z,100770.47
2019-05-02T06:17:41.584Z,100763.61
2019-05-02T06:20:30.239Z,100761.58
2019-05-02T06:23:35.943Z,100759.30
2019-05-02T06:26:08.103Z,100787.41
2019-05-02T06:29:21.394Z,100759.67
2019-05-02T06:32:05.439Z,100789.22
2019-05-02T06:34:55.896Z,100763.42
2019-05-02T06:37:45.402Z,100766.36
2019-05-02T06:40:27.844Z,100762.50
2019-05-02T06:43:12.502Z,100754.34
2019-05-02T06:49:00.712Z,100760.38
2019-05-02T06:51:50.982Z,100775.84
2019-05-02T06:54:54.008Z,100770.84
2019-05-02T06:57:40.448Z,100746.34
2019-05-02T07:00:35.373Z,100776.23
2019-05-02T07:03:11.688Z,100776.34
2019-05-02T07:05:58.770Z,100781.92
2019-05-02T07:08:47.487Z,100756.97
2019-05-02T07:11:57.870Z,100756.73
2019-05-02T07:14:56.138Z,100746.80
2019-05-02T07:17:45.130Z,100746.45
2019-05-02T07:23:18.356Z,100741.83
2019-05-02T07:26:09.084Z,100749.94
2019-05-02T07:28:52.999Z,100752.60
2019-05-02T07:31:37.728Z,100749.27
2019-05-02T07:34:25.630Z,100747.70
2019-05-02T07:37:12.580Z,100756.92
2019-05-02T07:40:01.788Z,100778.12
2019-05-02T07:42:47.403Z,100773.44
2019-05-02T07:45:19.984Z,100773.73
2019-05-02T07:48:03.898Z,100747.45
2019-05-02T07:50:50.198Z,100749.13
2019-05-02T07:53:36.667Z,100748.27
2019-05-02T07:56:21.511Z,100769.45
2019-05-02T07:59:09.940Z,100741.54
2019-05-02T08:01:55.404Z,100763.40
2019-05-02T08:04:43.558Z,100759.25
2019-05-02T08:07:34.177Z,100761.66
2019-05-02T08:10:16.237Z,100766.17
2019-05-02T08:13:02.344Z,100746.00
2019-05-02T08:15:50.929Z,100745.16
2019-05-02T08:18:32.050Z,100770.08
2019-05-02T08:21:16.385Z,100743.53
2019-05-02T08:24:02.155Z,100738.32
2019-05-02T08:29:42.943Z,100767.20
2019-05-02T08:32:27.308Z,100743.42
2019-05-02T08:35:12.589Z,100762.87
2019-05-02T08:37:57.292Z,100736.27
2019-05-02T08:40:47.600Z,100746.48
2019-05-02T08:43:28.373Z,100767.48
2019-05-02T08:46:16.025Z,100743.80
2019-05-02T08:49:00.396Z,100744.25
2019-05-02T08:51:45.496Z,100736.25
2019-05-02T08:57:34.585Z,100745.44
2019-05-02T09:00:18.694Z,100744.36
2019-05-02T09:03:04.705Z,100739.76
2019-05-02T09:05:48.789Z,100746.36
2019-05-02T09:08:34.926Z,100767.36
2019-05-02T09:14:29.782Z,100732.45
2019-05-02T09:17:16.549Z,100756.02
2019-05-02T09:20:05.465Z,100731.66
2019-05-02T09:22:51.449Z,100723.35
2019-05-02T09:25:33.104Z,100748.64
2019-05-02T09:28:17.281Z,100732.02
2019-05-02T09:31:06.698Z,100726.97
2019-05-02T09:33:51.946Z,100723.91
2019-05-02T09:36:38.213Z,100749.73
2019-05-02T09:39:32.628Z,100721.63
2019-05-02T09:42:19.050Z,100744.02
2019-05-02T09:45:03.248Z,100741.84
2019-05-02T09:47:57.268Z,100712.70
2019-05-02T09:50:38.078Z,100729.45
2019-05-02T09:53:25.573Z,100711.90
2019-05-02T09:56:08.890Z,100710.36
2019-05-02T09:59:01.957Z,100707.53
2019-05-02T10:01:42.155Z,100701.97
2019-05-02T10:04:27.143Z,100708.59
2019-05-02T10:27:08.375Z,100701.08
2019-05-02T10:29:52.336Z,100699.16
2019-05-02T10:36:45.206Z,100677.13
2019-05-02T10:43:17.137Z,100684.44
2019-05-02T12:21:02.594Z,100576.13
2019-05-02T12:50:23.923Z,100584.02
2019-05-02T12:56:26.135Z,100582.84
2019-05-02T14:32:26.371Z,100502.96
2019-05-02T14:35:29.513Z,100492.36
2019-05-02T14:38:52.583Z,100496.23
2019-05-02T14:41:40.482Z,100507.52
2019-05-02T14:45:04.024Z,100512.23
2019-05-02T14:47:43.185Z,100475.16
2019-05-02T14:50:28.806Z,100516.95
2019-05-02T15:03:04.260Z,100498.59
2019-05-02T15:05:50.031Z,100489.20
2019-05-02T15:08:36.773Z,100496.53
2019-05-02T15:11:30.587Z,100475.77
2019-05-02T15:14:11.362Z,100490.17
2019-05-02T15:16:56.623Z,100493.95
2019-05-02T15:19:39.513Z,100487.73
2019-05-02T15:22:33.181Z,100485.49
2019-05-02T15:25:36.066Z,100469.13
2019-05-02T15:35:29.119Z,100503.22
2019-05-02T15:38:20.898Z,100483.67
2019-05-02T15:41:07.031Z,100508.31
2019-05-02T15:43:49.479Z,100495.11
2019-05-02T15:46:34.960Z,100512.95
2019-05-02T15:49:23.264Z,100506.78
2019-05-02T15:52:09.256Z,100488.83
2019-05-02T15:54:59.760Z,100491.92
2019-05-02T15:57:43.625Z,100499.92
2019-05-02T16:00:32.110Z,100503.31
2019-05-02T16:03:45.492Z,100537.14
2019-05-02T16:06:41.958Z,100541.41
2019-05-02T16:09:25.927Z,100547.00
2019-05-02T16:12:12.030Z,100551.08
2019-05-02T16:14:56.408Z,100558.07
2019-05-02T16:17:42.356Z,100544.83
2019-05-02T16:24:18.377Z,100573.39
2019-05-02T16:39:51.264Z,100603.24
2019-05-02T16:42:44.358Z,100584.25
2019-05-02T17:20:57.010Z,100595.81
2019-05-02T17:37:39.884Z,100587.66
2019-05-02T17:40:26.069Z,100581.03
2019-05-02T17:46:43.051Z,100589.69
2019-05-02T18:08:56.118Z,100606.46
2019-05-02T18:11:43.820Z,100599.83
2019-05-02T18:14:29.135Z,100625.33
2019-05-02T18:17:13.901Z,100626.11
2019-05-02T18:20:02.174Z,100627.24
2019-05-02T18:22:56.088Z,100600.65
2019-05-02T18:25:30.566Z,100625.42
2019-05-02T18:34:32.931Z,100615.17
2019-05-02T18:37:21.808Z,100615.28
2019-05-02T18:43:05.481Z,100639.10
2019-05-02T18:48:55.523Z,100644.05
2019-05-02T18:54:38.675Z,100650.56
2019-05-02T18:57:56.977Z,100642.78
2019-05-02T19:31:08.057Z,100672.57
2019-05-02T19:36:58.037Z,100647.94
2019-05-02T19:43:35.016Z,100659.41
2019-05-02T19:49:39.876Z,100686.20
2019-05-02T19:52:28.631Z,100686.83
2019-05-02T19:55:12.158Z,100668.49
2019-05-02T19:57:56.677Z,100671.27
2019-05-02T20:00:46.177Z,100692.55
2019-05-02T20:03:28.165Z,100668.00
2019-05-02T20:06:14.145Z,100673.97
2019-05-02T20:08:59.256Z,100702.69
2019-05-02T20:11:52.402Z,100702.30
2019-05-02T20:14:38.213Z,100684.23
2019-05-02T20:17:24.883Z,100683.73
2019-05-02T20:20:14.414Z,100672.69
2019-05-02T20:22:59.027Z,100697.47
2019-05-02T20:25:44.683Z,100697.31
2019-05-02T20:28:31.627Z,100698.91
2019-05-02T20:31:16.748Z,100700.95
2019-05-02T20:34:02.555Z,100682.92
2019-05-02T20:36:47.188Z,100683.12
2019-05-02T20:39:32.723Z,100684.57
2019-05-02T20:42:18.159Z,100682.47
2019-05-02T20:45:02.468Z,100687.02
2019-05-02T20:47:46.510Z,100717.88
2019-05-02T20:50:31.830Z,100715.80
2019-05-02T20:53:28.158Z,100719.08
2019-05-02T20:56:03.109Z,100702.63
2019-05-02T20:58:47.413Z,100701.58
2019-05-02T21:01:32.347Z,100708.55
2019-05-02T21:04:16.390Z,100735.98
2019-05-02T21:07:22.200Z,100717.66
2019-05-02T21:10:27.768Z,100739.07
2019-05-02T21:13:02.074Z,100737.72
2019-05-02T21:16:03.798Z,100718.89
2019-05-02T21:18:48.088Z,100747.12
2019-05-02T21:21:33.199Z,100749.98
2019-05-02T21:24:18.398Z,100724.24
2019-05-02T21:27:03.624Z,100747.11
2019-05-02T21:29:48.054Z,100723.47
2019-05-02T21:32:32.239Z,100728.15
2019-05-02T21:35:18.070Z,100756.58
2019-05-02T21:38:02.210Z,100731.57
2019-05-02T21:40:34.627Z,100761.23
2019-05-02T21:46:22.445Z,100757.52
2019-05-02T21:49:06.484Z,100734.47
2019-05-02T21:52:15.505Z,100736.07
2019-05-02T21:55:21.769Z,100738.63
2019-05-02T21:58:06.365Z,100770.66
2019-05-02T22:03:56.452Z,100763.88
2019-05-02T22:06:42.739Z,100764.09
2019-05-02T22:09:26.904Z,100737.80
2019-05-02T22:15:14.856Z,100745.69
2019-05-02T22:17:59.442Z,100776.65
2019-05-02T22:20:43.821Z,100767.28
2019-05-02T22:23:27.939Z,100761.75
2019-05-02T22:26:12.731Z,100783.02
2019-05-02T22:28:57.738Z,100761.75
2019-05-02T22:31:42.998Z,100773.72
2019-05-02T22:34:27.909Z,100748.69
2019-05-02T22:37:13.449Z,100754.78
2019-05-02T22:40:03.860Z,100784.56
2019-05-02T22:43:01.940Z,100769.03
2019-05-02T22:45:35.025Z,100795.08
2019-05-02T22:48:18.942Z,100796.87
2019-05-02T22:51:03.159Z,100800.44
2019-05-02T22:53:48.449Z,100800.56
2019-05-02T22:56:32.737Z,100797.88
2019-05-02T22:59:17.679Z,100799.97
2019-05-02T23:02:06.084Z,100790.97
2019-05-02T23:04:52.514Z,100802.57
2019-05-02T23:07:36.443Z,100785.06
2019-05-02T23:10:22.050Z,100823.97
2019-05-02T23:13:07.472Z,100795.38
2019-05-02T23:15:52.134Z,100817.29
2019-05-02T23:18:36.315Z,100813.41
2019-05-02T23:21:21.803Z,100808.69
2019-05-02T23:24:14.560Z,100805.08
2019-05-02T23:27:31.439Z,100779.78
2019-05-02T23:30:18.328Z,100814.13
2019-05-02T23:33:02.779Z,100789.80
2019-05-02T23:35:52.155Z,100795.03
2019-05-02T23:38:48.793Z,100823.91
2019-05-02T23:41:36.987Z,100828.41
2019-05-02T23:44:22.706Z,100818.05
2019-05-02T23:47:06.957Z,100790.13
2019-05-02T23:49:52.061Z,100815.12
2019-05-02T23:52:36.178Z,100786.72
2019-05-02T23:55:20.500Z,100812.14
2019-05-02T23:58:04.322Z,100814.58
